sensor_id;sensor_type;location;lat;lon;timestamp;P1;durP1;ratioP1;P2;durP2;ratioP2
82288;SDS011;71889;39.264;-120.910;2023-08-30T01:13:40;5.35;;;3.20;;
82288;SDS011;71889;39.264;-120.910;2023-08-30T01:16:29;8.40;;;2.85;;
82288;SDS011;71889;39.264;-120.910;2023-08-30T01:27:56;4.38;;;3.13;;
82288;SDS011;71889;39.264;-120.910;2023-08-30T01:30:43;3.85;;;2.70;;
82288;SDS011;71889;39.264;-120.910;2023-08-30T01:33:31;5.63;;;2.58;;
82288;SDS011;71889;39.264;-120.910;2023-08-30T01:36:19;4.55;;;2.60;;
82288;SDS011;71889;39.264;-120.910;2023-08-30T01:39:06;3.67;;;2.30;;
82288;SDS011;71889;39.264;-120.910;2023-08-30T01:41:53;4.75;;;2.90;;
82288;SDS011;71889;39.264;-120.910;2023-08-30T01:44:44;3.97;;;2.63;;
82288;SDS011;71889;39.264;-120.910;2023-08-30T01:47:31;5.05;;;2.63;;
82288;SDS011;71889;39.264;-120.910;2023-08-30T01:50:20;5.60;;;2.90;;
82288;SDS011;71889;39.264;-120.910;2023-08-30T01:53:07;5.55;;;2.92;;
82288;SDS011;71889;39.264;-120.910;2023-08-30T01:55:55;10.02;;;7.95;;
82288;SDS011;71889;39.264;-120.910;2023-08-30T01:58:42;5.07;;;3.25;;
82288;SDS011;71889;39.264;-120.910;2023-08-30T02:01:29;5.35;;;2.92;;
82288;SDS011;71889;39.264;-120.910;2023-08-30T02:04:16;4.43;;;3.42;;
82288;SDS011;71889;39.264;-120.910;2023-08-30T02:07:04;8.77;;;3.53;;
82288;SDS011;71889;39.264;-120.910;2023-08-30T02:09:58;7.28;;;3.10;;
82288;SDS011;71889;39.264;-120.910;2023-08-30T02:12:47;7.10;;;3.45;;
82288;SDS011;71889;39.264;-120.910;2023-08-30T02:15:35;7.90;;;4.40;;
82288;SDS011;71889;39.264;-120.910;2023-08-30T02:18:23;6.63;;;4.28;;
82288;SDS011;71889;39.264;-120.910;2023-08-30T02:23:57;5.97;;;3.97;;
82288;SDS011;71889;39.264;-120.910;2023-08-30T02:26:44;6.35;;;4.03;;
82288;SDS011;71889;39.264;-120.910;2023-08-30T02:29:31;8.20;;;4.35;;
82288;SDS011;71889;39.264;-120.910;2023-08-30T02:32:18;8.40;;;4.68;;
82288;SDS011;71889;39.264;-120.910;2023-08-30T02:35:06;8.50;;;4.63;;
82288;SDS011;71889;39.264;-120.910;2023-08-30T02:37:53;8.35;;;4.70;;
82288;SDS011;71889;39.264;-120.910;2023-08-30T02:40:40;6.90;;;4.50;;
82288;SDS011;71889;39.264;-120.910;2023-08-30T02:43:27;8.02;;;5.20;;
82288;SDS011;71889;39.264;-120.910;2023-08-30T02:46:14;7.03;;;4.78;;
82288;SDS011;71889;39.264;-120.910;2023-08-30T02:49:01;8.43;;;5.40;;
82288;SDS011;71889;39.264;-120.910;2023-08-30T02:51:48;7.78;;;4.88;;
82288;SDS011;71889;39.264;-120.910;2023-08-30T02:54:35;6.65;;;4.60;;
82288;SDS011;71889;39.264;-120.910;2023-08-30T02:57:22;8.45;;;5.03;;
82288;SDS011;71889;39.264;-120.910;2023-08-30T03:00:09;7.93;;;5.20;;
82288;SDS011;71889;39.264;-120.910;2023-08-30T03:02:56;8.40;;;4.57;;
82288;SDS011;71889;39.264;-120.910;2023-08-30T03:05:24;6.80;;;4.28;;
82288;SDS011;71889;39.264;-120.910;2023-08-30T03:07:52;8.60;;;4.43;;
82288;SDS011;71889;39.264;-120.910;2023-08-30T03:10:18;5.32;;;3.80;;
82288;SDS011;71889;39.264;-120.910;2023-08-30T03:12:45;6.72;;;4.07;;
82288;SDS011;71889;39.264;-120.910;2023-08-30T03:15:12;6.10;;;3.75;;
82288;SDS011;71889;39.264;-120.910;2023-08-30T03:17:38;5.95;;;3.67;;
82288;SDS011;71889;39.264;-120.910;2023-08-30T03:20:05;6.72;;;3.80;;
82288;SDS011;71889;39.264;-120.910;2023-08-30T03:22:32;6.65;;;3.80;;
82288;SDS011;71889;39.264;-120.910;2023-08-30T03:24:59;6.13;;;4.05;;
82288;SDS011;71889;39.264;-120.910;2023-08-30T03:27:28;5.47;;;4.05;;
82288;SDS011;71889;39.264;-120.910;2023-08-30T03:29:55;6.15;;;3.92;;
82288;SDS011;71889;39.264;-120.910;2023-08-30T03:32:22;7.32;;;4.18;;
82288;SDS011;71889;39.264;-120.910;2023-08-30T03:34:48;7.13;;;3.63;;
82288;SDS011;71889;39.264;-120.910;2023-08-30T03:37:16;5.72;;;3.90;;
82288;SDS011;71889;39.264;-120.910;2023-08-30T03:39:43;7.95;;;3.92;;
82288;SDS011;71889;39.264;-120.910;2023-08-30T03:42:12;15.18;;;4.97;;
82288;SDS011;71889;39.264;-120.910;2023-08-30T03:44:40;17.42;;;4.75;;
82288;SDS011;71889;39.264;-120.910;2023-08-30T03:47:06;8.38;;;4.15;;
82288;SDS011;71889;39.264;-120.910;2023-08-30T03:49:33;9.77;;;4.15;;
82288;SDS011;71889;39.264;-120.910;2023-08-30T03:51:59;7.00;;;4.28;;
82288;SDS011;71889;39.264;-120.910;2023-08-30T03:54:26;5.93;;;4.38;;
82288;SDS011;71889;39.264;-120.910;2023-08-30T03:56:53;7.15;;;4.10;;
82288;SDS011;71889;39.264;-120.910;2023-08-30T03:59:20;8.82;;;5.03;;
82288;SDS011;71889;39.264;-120.910;2023-08-30T04:01:48;7.43;;;4.38;;
82288;SDS011;71889;39.264;-120.910;2023-08-30T04:04:15;7.38;;;3.95;;
82288;SDS011;71889;39.264;-120.910;2023-08-30T04:06:41;7.85;;;4.70;;
82288;SDS011;71889;39.264;-120.910;2023-08-30T04:09:08;7.88;;;4.55;;
82288;SDS011;71889;39.264;-120.910;2023-08-30T04:11:35;6.72;;;4.13;;
82288;SDS011;71889;39.264;-120.910;2023-08-30T04:14:02;8.43;;;4.82;;
82288;SDS011;71889;39.264;-120.910;2023-08-30T04:16:29;7.50;;;4.60;;
82288;SDS011;71889;39.264;-120.910;2023-08-30T04:18:58;7.57;;;4.28;;
82288;SDS011;71889;39.264;-120.910;2023-08-30T04:23:51;7.72;;;4.72;;
82288;SDS011;71889;39.264;-120.910;2023-08-30T04:26:18;8.70;;;4.68;;
82288;SDS011;71889;39.264;-120.910;2023-08-30T04:28:44;9.85;;;5.25;;
82288;SDS011;71889;39.264;-120.910;2023-08-30T04:31:11;8.63;;;4.88;;
82288;SDS011;71889;39.264;-120.910;2023-08-30T04:33:39;8.23;;;5.00;;
82288;SDS011;71889;39.264;-120.910;2023-08-30T04:36:05;9.32;;;4.72;;
82288;SDS011;71889;39.264;-120.910;2023-08-30T04:38:32;9.30;;;4.90;;
82288;SDS011;71889;39.264;-120.910;2023-08-30T04:40:59;9.07;;;4.97;;
82288;SDS011;71889;39.264;-120.910;2023-08-30T04:43:26;8.90;;;4.90;;
82288;SDS011;71889;39.264;-120.910;2023-08-30T04:45:53;7.07;;;4.50;;
82288;SDS011;71889;39.264;-120.910;2023-08-30T04:48:19;8.32;;;4.57;;
82288;SDS011;71889;39.264;-120.910;2023-08-30T04:50:46;7.78;;;5.03;;
82288;SDS011;71889;39.264;-120.910;2023-08-30T04:53:13;7.65;;;5.07;;
82288;SDS011;71889;39.264;-120.910;2023-08-30T04:55:39;8.77;;;4.82;;
82288;SDS011;71889;39.264;-120.910;2023-08-30T04:58:06;7.93;;;4.80;;
82288;SDS011;71889;39.264;-120.910;2023-08-30T05:00:33;9.65;;;4.97;;
82288;SDS011;71889;39.264;-120.910;2023-08-30T05:02:59;11.65;;;5.25;;
82288;SDS011;71889;39.264;-120.910;2023-08-30T05:05:26;8.57;;;5.03;;
82288;SDS011;71889;39.264;-120.910;2023-08-30T05:07:52;8.07;;;4.85;;
82288;SDS011;71889;39.264;-120.910;2023-08-30T05:10:19;8.75;;;5.60;;
82288;SDS011;71889;39.264;-120.910;2023-08-30T05:12:46;8.73;;;5.28;;
82288;SDS011;71889;39.264;-120.910;2023-08-30T05:15:17;9.32;;;4.80;;
82288;SDS011;71889;39.264;-120.910;2023-08-30T05:17:44;8.43;;;5.40;;
82288;SDS011;71889;39.264;-120.910;2023-08-30T05:20:11;8.48;;;5.57;;
82288;SDS011;71889;39.264;-120.910;2023-08-30T05:22:38;8.25;;;4.72;;
82288;SDS011;71889;39.264;-120.910;2023-08-30T05:25:04;9.18;;;4.63;;
82288;SDS011;71889;39.264;-120.910;2023-08-30T05:27:31;8.77;;;5.00;;
82288;SDS011;71889;39.264;-120.910;2023-08-30T05:29:58;9.88;;;5.00;;
82288;SDS011;71889;39.264;-120.910;2023-08-30T05:32:25;7.50;;;4.80;;
82288;SDS011;71889;39.264;-120.910;2023-08-30T05:34:51;6.82;;;4.43;;
82288;SDS011;71889;39.264;-120.910;2023-08-30T05:37:18;9.02;;;5.15;;
82288;SDS011;71889;39.264;-120.910;2023-08-30T05:39:44;9.23;;;5.13;;
82288;SDS011;71889;39.264;-120.910;2023-08-30T05:42:11;8.55;;;5.00;;
82288;SDS011;71889;39.264;-120.910;2023-08-30T05:44:38;7.63;;;4.93;;
82288;SDS011;71889;39.264;-120.910;2023-08-30T05:47:05;9.13;;;5.68;;
82288;SDS011;71889;39.264;-120.910;2023-08-30T05:49:31;9.80;;;5.22;;
82288;SDS011;71889;39.264;-120.910;2023-08-30T05:51:58;8.13;;;5.05;;
82288;SDS011;71889;39.264;-120.910;2023-08-30T05:54:25;9.15;;;5.05;;
82288;SDS011;71889;39.264;-120.910;2023-08-30T05:56:54;7.55;;;4.57;;
82288;SDS011;71889;39.264;-120.910;2023-08-30T05:59:22;9.93;;;4.93;;
82288;SDS011;71889;39.264;-120.910;2023-08-30T06:01:49;8.38;;;5.20;;
82288;SDS011;71889;39.264;-120.910;2023-08-30T06:04:16;7.65;;;4.85;;
82288;SDS011;71889;39.264;-120.910;2023-08-30T06:06:42;8.90;;;5.45;;
82288;SDS011;71889;39.264;-120.910;2023-08-30T06:09:09;9.52;;;5.32;;
82288;SDS011;71889;39.264;-120.910;2023-08-30T06:11:38;8.90;;;5.22;;
82288;SDS011;71889;39.264;-120.910;2023-08-30T06:14:04;8.50;;;5.15;;
82288;SDS011;71889;39.264;-120.910;2023-08-30T06:16:34;9.27;;;4.85;;
82288;SDS011;71889;39.264;-120.910;2023-08-30T06:19:01;9.82;;;4.93;;
82288;SDS011;71889;39.264;-120.910;2023-08-30T06:21:27;7.45;;;4.82;;
82288;SDS011;71889;39.264;-120.910;2023-08-30T06:23:54;10.50;;;4.70;;
82288;SDS011;71889;39.264;-120.910;2023-08-30T06:26:21;7.82;;;4.65;;
82288;SDS011;71889;39.264;-120.910;2023-08-30T06:28:47;11.70;;;5.25;;
82288;SDS011;71889;39.264;-120.910;2023-08-30T06:31:14;9.95;;;4.63;;
82288;SDS011;71889;39.264;-120.910;2023-08-30T06:33:41;8.45;;;4.95;;
82288;SDS011;71889;39.264;-120.910;2023-08-30T06:36:07;8.60;;;4.60;;
82288;SDS011;71889;39.264;-120.910;2023-08-30T06:38:37;8.63;;;4.85;;
82288;SDS011;71889;39.264;-120.910;2023-08-30T06:41:03;8.73;;;4.38;;
82288;SDS011;71889;39.264;-120.910;2023-08-30T06:43:31;6.85;;;4.18;;
82288;SDS011;71889;39.264;-120.910;2023-08-30T06:45:57;6.50;;;4.53;;
82288;SDS011;71889;39.264;-120.910;2023-08-30T06:48:25;6.80;;;4.63;;
82288;SDS011;71889;39.264;-120.910;2023-08-30T06:50:51;8.77;;;4.75;;
82288;SDS011;71889;39.264;-120.910;2023-08-30T06:53:18;6.60;;;4.10;;
82288;SDS011;71889;39.264;-120.910;2023-08-30T06:55:44;7.32;;;4.35;;
82288;SDS011;71889;39.264;-120.910;2023-08-30T06:58:11;8.35;;;4.15;;
82288;SDS011;71889;39.264;-120.910;2023-08-30T07:00:38;7.05;;;4.47;;
82288;SDS011;71889;39.264;-120.910;2023-08-30T07:03:04;9.20;;;4.20;;
82288;SDS011;71889;39.264;-120.910;2023-08-30T07:05:31;6.75;;;4.10;;
82288;SDS011;71889;39.264;-120.910;2023-08-30T07:07:57;6.57;;;3.95;;
82288;SDS011;71889;39.264;-120.910;2023-08-30T07:10:24;6.63;;;3.75;;
82288;SDS011;71889;39.264;-120.910;2023-08-30T07:12:51;6.30;;;3.80;;
82288;SDS011;71889;39.264;-120.910;2023-08-30T07:15:17;6.55;;;3.60;;
82288;SDS011;71889;39.264;-120.910;2023-08-30T07:17:44;6.38;;;3.63;;
82288;SDS011;71889;39.264;-120.910;2023-08-30T07:20:11;8.70;;;4.30;;
82288;SDS011;71889;39.264;-120.910;2023-08-30T07:22:37;6.45;;;3.78;;
82288;SDS011;71889;39.264;-120.910;2023-08-30T07:25:04;7.70;;;3.95;;
82288;SDS011;71889;39.264;-120.910;2023-08-30T07:27:31;4.93;;;3.15;;
82288;SDS011;71889;39.264;-120.910;2023-08-30T07:29:58;5.82;;;3.58;;
82288;SDS011;71889;39.264;-120.910;2023-08-30T07:32:25;7.07;;;3.75;;
82288;SDS011;71889;39.264;-120.910;2023-08-30T07:34:52;6.28;;;4.00;;
82288;SDS011;71889;39.264;-120.910;2023-08-30T07:37:19;6.57;;;3.95;;
82288;SDS011;71889;39.264;-120.910;2023-08-30T07:39:46;7.55;;;4.05;;
82288;SDS011;71889;39.264;-120.910;2023-08-30T07:42:13;7.28;;;4.07;;
82288;SDS011;71889;39.264;-120.910;2023-08-30T07:44:40;7.00;;;4.00;;
82288;SDS011;71889;39.264;-120.910;2023-08-30T07:47:07;7.50;;;3.63;;
82288;SDS011;71889;39.264;-120.910;2023-08-30T07:49:34;6.13;;;3.35;;
82288;SDS011;71889;39.264;-120.910;2023-08-30T07:52:00;4.68;;;3.22;;
82288;SDS011;71889;39.264;-120.910;2023-08-30T07:54:45;7.15;;;3.55;;
82288;SDS011;71889;39.264;-120.910;2023-08-30T07:57:12;5.60;;;3.30;;
82288;SDS011;71889;39.264;-120.910;2023-08-30T07:59:39;7.93;;;3.63;;
82288;SDS011;71889;39.264;-120.910;2023-08-30T08:02:06;4.78;;;2.95;;
82288;SDS011;71889;39.264;-120.910;2023-08-30T08:04:33;5.22;;;2.88;;
82288;SDS011;71889;39.264;-120.910;2023-08-30T08:07:01;5.20;;;3.05;;
82288;SDS011;71889;39.264;-120.910;2023-08-30T08:09:27;5.50;;;3.10;;
82288;SDS011;71889;39.264;-120.910;2023-08-30T08:11:55;4.82;;;3.03;;
82288;SDS011;71889;39.264;-120.910;2023-08-30T08:14:22;6.78;;;3.53;;
82288;SDS011;71889;39.264;-120.910;2023-08-30T08:16:49;5.38;;;3.28;;
82288;SDS011;71889;39.264;-120.910;2023-08-30T08:19:15;6.53;;;2.90;;
82288;SDS011;71889;39.264;-120.910;2023-08-30T08:21:42;4.10;;;2.60;;
82288;SDS011;71889;39.264;-120.910;2023-08-30T08:24:08;5.57;;;2.80;;
82288;SDS011;71889;39.264;-120.910;2023-08-30T08:26:35;5.20;;;2.70;;
82288;SDS011;71889;39.264;-120.910;2023-08-30T08:29:02;6.05;;;3.13;;
82288;SDS011;71889;39.264;-120.910;2023-08-30T08:31:29;6.70;;;3.13;;
82288;SDS011;71889;39.264;-120.910;2023-08-30T08:36:42;5.68;;;2.78;;
82288;SDS011;71889;39.264;-120.910;2023-08-30T08:39:09;5.00;;;2.65;;
82288;SDS011;71889;39.264;-120.910;2023-08-30T08:41:38;4.47;;;2.63;;
82288;SDS011;71889;39.264;-120.910;2023-08-30T08:44:07;5.47;;;2.83;;
82288;SDS011;71889;39.264;-120.910;2023-08-30T08:46:37;5.05;;;2.85;;
82288;SDS011;71889;39.264;-120.910;2023-08-30T08:49:16;5.32;;;3.03;;
82288;SDS011;71889;39.264;-120.910;2023-08-30T08:51:43;6.03;;;2.50;;
82288;SDS011;71889;39.264;-120.910;2023-08-30T08:54:11;4.07;;;2.60;;
82288;SDS011;71889;39.264;-120.910;2023-08-30T08:56:38;3.80;;;2.42;;
82288;SDS011;71889;39.264;-120.910;2023-08-30T08:59:05;4.22;;;2.15;;
82288;SDS011;71889;39.264;-120.910;2023-08-30T09:01:33;4.75;;;2.38;;
82288;SDS011;71889;39.264;-120.910;2023-08-30T09:04:09;4.70;;;2.47;;
82288;SDS011;71889;39.264;-120.910;2023-08-30T09:06:35;4.28;;;2.40;;
82288;SDS011;71889;39.264;-120.910;2023-08-30T09:09:02;4.47;;;2.33;;
82288;SDS011;71889;39.264;-120.910;2023-08-30T09:11:30;4.15;;;2.22;;
82288;SDS011;71889;39.264;-120.910;2023-08-30T09:13:57;4.75;;;2.25;;
82288;SDS011;71889;39.264;-120.910;2023-08-30T09:16:23;3.60;;;2.20;;
82288;SDS011;71889;39.264;-120.910;2023-08-30T09:19:03;4.10;;;2.35;;
82288;SDS011;71889;39.264;-120.910;2023-08-30T09:21:30;5.95;;;1.92;;
82288;SDS011;71889;39.264;-120.910;2023-08-30T09:23:57;3.90;;;2.17;;
82288;SDS011;71889;39.264;-120.910;2023-08-30T09:26:25;3.03;;;1.83;;
82288;SDS011;71889;39.264;-120.910;2023-08-30T09:28:54;3.55;;;1.80;;
82288;SDS011;71889;39.264;-120.910;2023-08-30T09:31:20;2.90;;;1.67;;
82288;SDS011;71889;39.264;-120.910;2023-08-30T09:33:47;3.63;;;1.95;;
82288;SDS011;71889;39.264;-120.910;2023-08-30T09:36:14;3.92;;;1.65;;
82288;SDS011;71889;39.264;-120.910;2023-08-30T09:38:40;4.25;;;1.70;;
82288;SDS011;71889;39.264;-120.910;2023-08-30T09:41:07;3.88;;;1.80;;
82288;SDS011;71889;39.264;-120.910;2023-08-30T09:43:41;3.65;;;1.80;;
82288;SDS011;71889;39.264;-120.910;2023-08-30T09:46:09;3.50;;;1.75;;
82288;SDS011;71889;39.264;-120.910;2023-08-30T09:48:37;3.08;;;1.85;;
82288;SDS011;71889;39.264;-120.910;2023-08-30T09:53:33;3.03;;;1.60;;
82288;SDS011;71889;39.264;-120.910;2023-08-30T09:56:02;3.53;;;1.80;;
82288;SDS011;71889;39.264;-120.910;2023-08-30T09:58:29;2.80;;;1.58;;
82288;SDS011;71889;39.264;-120.910;2023-08-30T10:00:57;5.80;;;1.77;;
82288;SDS011;71889;39.264;-120.910;2023-08-30T10:03:29;2.85;;;1.42;;
82288;SDS011;71889;39.264;-120.910;2023-08-30T10:05:56;4.22;;;1.58;;
82288;SDS011;71889;39.264;-120.910;2023-08-30T10:08:24;3.53;;;1.50;;
82288;SDS011;71889;39.264;-120.910;2023-08-30T10:10:56;3.95;;;1.80;;
82288;SDS011;71889;39.264;-120.910;2023-08-30T10:13:24;4.40;;;1.52;;
82288;SDS011;71889;39.264;-120.910;2023-08-30T10:15:53;3.38;;;1.65;;
82288;SDS011;71889;39.264;-120.910;2023-08-30T10:18:22;3.85;;;1.80;;
82288;SDS011;71889;39.264;-120.910;2023-08-30T10:20:51;4.38;;;1.70;;
82288;SDS011;71889;39.264;-120.910;2023-08-30T10:23:20;3.63;;;1.63;;
82288;SDS011;71889;39.264;-120.910;2023-08-30T10:25:48;2.72;;;1.55;;
82288;SDS011;71889;39.264;-120.910;2023-08-30T10:28:16;2.60;;;1.52;;
82288;SDS011;71889;39.264;-120.910;2023-08-30T10:30:43;3.40;;;1.63;;
82288;SDS011;71889;39.264;-120.910;2023-08-30T10:33:13;2.88;;;1.60;;
82288;SDS011;71889;39.264;-120.910;2023-08-30T10:35:48;3.15;;;1.88;;
82288;SDS011;71889;39.264;-120.910;2023-08-30T10:38:25;3.88;;;1.55;;
82288;SDS011;71889;39.264;-120.910;2023-08-30T10:40:53;5.20;;;2.05;;
82288;SDS011;71889;39.264;-120.910;2023-08-30T10:43:29;2.83;;;1.70;;
82288;SDS011;71889;39.264;-120.910;2023-08-30T10:46:00;2.78;;;1.48;;
82288;SDS011;71889;39.264;-120.910;2023-08-30T10:48:40;2.72;;;1.80;;
82288;SDS011;71889;39.264;-120.910;2023-08-30T10:51:21;2.70;;;1.50;;
82288;SDS011;71889;39.264;-120.910;2023-08-30T10:53:55;2.33;;;1.35;;
82288;SDS011;71889;39.264;-120.910;2023-08-30T10:56:26;2.47;;;1.25;;
82288;SDS011;71889;39.264;-120.910;2023-08-30T10:58:54;3.92;;;1.50;;
82288;SDS011;71889;39.264;-120.910;2023-08-30T11:01:20;2.90;;;1.38;;
82288;SDS011;71889;39.264;-120.910;2023-08-30T11:03:47;3.10;;;1.30;;
82288;SDS011;71889;39.264;-120.910;2023-08-30T11:06:15;3.05;;;1.40;;
82288;SDS011;71889;39.264;-120.910;2023-08-30T11:08:43;3.05;;;1.40;;
82288;SDS011;71889;39.264;-120.910;2023-08-30T11:11:10;2.28;;;1.23;;
82288;SDS011;71889;39.264;-120.910;2023-08-30T11:13:40;2.47;;;1.40;;
82288;SDS011;71889;39.264;-120.910;2023-08-30T11:16:07;2.35;;;1.20;;
82288;SDS011;71889;39.264;-120.910;2023-08-30T11:18:37;2.17;;;1.20;;
82288;SDS011;71889;39.264;-120.910;2023-08-30T11:21:07;2.47;;;1.10;;
82288;SDS011;71889;39.264;-120.910;2023-08-30T11:23:34;2.03;;;1.10;;
82288;SDS011;71889;39.264;-120.910;2023-08-30T11:26:01;2.30;;;1.00;;
82288;SDS011;71889;39.264;-120.910;2023-08-30T11:28:29;2.92;;;1.42;;
82288;SDS011;71889;39.264;-120.910;2023-08-30T11:30:55;2.78;;;1.40;;
82288;SDS011;71889;39.264;-120.910;2023-08-30T11:33:22;1.95;;;0.93;;
82288;SDS011;71889;39.264;-120.910;2023-08-30T11:35:50;2.55;;;1.23;;
82288;SDS011;71889;39.264;-120.910;2023-08-30T11:38:17;2.25;;;1.08;;
82288;SDS011;71889;39.264;-120.910;2023-08-30T11:40:44;2.05;;;1.08;;
82288;SDS011;71889;39.264;-120.910;2023-08-30T11:43:11;2.45;;;1.20;;
82288;SDS011;71889;39.264;-120.910;2023-08-30T11:45:38;1.85;;;1.08;;
82288;SDS011;71889;39.264;-120.910;2023-08-30T11:48:04;2.30;;;1.20;;
82288;SDS011;71889;39.264;-120.910;2023-08-30T11:50:31;2.13;;;1.20;;
82288;SDS011;71889;39.264;-120.910;2023-08-30T11:52:58;2.17;;;1.20;;
82288;SDS011;71889;39.264;-120.910;2023-08-30T11:55:25;2.13;;;1.20;;
82288;SDS011;71889;39.264;-120.910;2023-08-30T11:57:55;2.38;;;0.90;;
82288;SDS011;71889;39.264;-120.910;2023-08-30T12:00:22;2.17;;;1.20;;
82288;SDS011;71889;39.264;-120.910;2023-08-30T12:02:49;2.42;;;1.00;;
82288;SDS011;71889;39.264;-120.910;2023-08-30T12:05:16;2.97;;;1.15;;
82288;SDS011;71889;39.264;-120.910;2023-08-30T12:07:42;2.03;;;1.00;;
82288;SDS011;71889;39.264;-120.910;2023-08-30T12:10:10;1.95;;;1.00;;
82288;SDS011;71889;39.264;-120.910;2023-08-30T12:12:37;2.00;;;1.00;;
82288;SDS011;71889;39.264;-120.910;2023-08-30T12:15:10;2.25;;;1.23;;
82288;SDS011;71889;39.264;-120.910;2023-08-30T12:17:37;1.67;;;1.00;;
82288;SDS011;71889;39.264;-120.910;2023-08-30T12:20:04;2.63;;;1.23;;
82288;SDS011;71889;39.264;-120.910;2023-08-30T12:22:40;3.08;;;1.20;;
82288;SDS011;71889;39.264;-120.910;2023-08-30T12:25:17;2.25;;;1.40;;
82288;SDS011;71889;39.264;-120.910;2023-08-30T12:27:44;2.47;;;1.05;;
82288;SDS011;71889;39.264;-120.910;2023-08-30T12:30:12;2.33;;;1.20;;
82288;SDS011;71889;39.264;-120.910;2023-08-30T12:32:40;2.45;;;1.30;;
82288;SDS011;71889;39.264;-120.910;2023-08-30T12:37:37;3.22;;;1.52;;
82288;SDS011;71889;39.264;-120.910;2023-08-30T12:40:04;1.83;;;0.85;;
82288;SDS011;71889;39.264;-120.910;2023-08-30T12:42:32;2.50;;;1.00;;
82288;SDS011;71889;39.264;-120.910;2023-08-30T12:44:58;2.45;;;1.00;;
82288;SDS011;71889;39.264;-120.910;2023-08-30T12:47:26;2.20;;;1.20;;
82288;SDS011;71889;39.264;-120.910;2023-08-30T12:49:52;1.60;;;0.85;;
82288;SDS011;71889;39.264;-120.910;2023-08-30T12:52:19;2.78;;;1.20;;
82288;SDS011;71889;39.264;-120.910;2023-08-30T12:54:46;2.08;;;1.30;;
82288;SDS011;71889;39.264;-120.910;2023-08-30T12:57:13;3.38;;;1.20;;
82288;SDS011;71889;39.264;-120.910;2023-08-30T12:59:40;1.90;;;1.00;;
82288;SDS011;71889;39.264;-120.910;2023-08-30T13:02:06;1.58;;;0.88;;
82288;SDS011;71889;39.264;-120.910;2023-08-30T13:04:33;3.30;;;1.10;;
82288;SDS011;71889;39.264;-120.910;2023-08-30T13:07:03;2.55;;;1.10;;
82288;SDS011;71889;39.264;-120.910;2023-08-30T13:09:30;1.60;;;0.90;;
82288;SDS011;71889;39.264;-120.910;2023-08-30T13:11:56;1.98;;;1.10;;
82288;SDS011;71889;39.264;-120.910;2023-08-30T13:14:23;1.90;;;0.90;;
82288;SDS011;71889;39.264;-120.910;2023-08-30T13:16:49;1.60;;;0.75;;
82288;SDS011;71889;39.264;-120.910;2023-08-30T13:19:16;1.98;;;1.25;;
82288;SDS011;71889;39.264;-120.910;2023-08-30T13:21:43;1.95;;;1.00;;
82288;SDS011;71889;39.264;-120.910;2023-08-30T13:24:09;2.28;;;1.15;;
82288;SDS011;71889;39.264;-120.910;2023-08-30T13:26:36;2.03;;;1.20;;
82288;SDS011;71889;39.264;-120.910;2023-08-30T13:29:03;2.15;;;1.00;;
82288;SDS011;71889;39.264;-120.910;2023-08-30T13:31:29;1.95;;;1.00;;
82288;SDS011;71889;39.264;-120.910;2023-08-30T13:33:56;2.95;;;1.20;;
82288;SDS011;71889;39.264;-120.910;2023-08-30T13:36:24;3.47;;;1.13;;
82288;SDS011;71889;39.264;-120.910;2023-08-30T13:38:50;2.38;;;0.98;;
82288;SDS011;71889;39.264;-120.910;2023-08-30T13:41:18;1.67;;;1.00;;
82288;SDS011;71889;39.264;-120.910;2023-08-30T13:43:45;4.60;;;1.17;;
82288;SDS011;71889;39.264;-120.910;2023-08-30T13:46:11;1.58;;;0.82;;
82288;SDS011;71889;39.264;-120.910;2023-08-30T13:48:38;4.53;;;1.25;;
82288;SDS011;71889;39.264;-120.910;2023-08-30T13:51:04;3.15;;;1.15;;
82288;SDS011;71889;39.264;-120.910;2023-08-30T13:53:31;3.13;;;1.50;;
82288;SDS011;71889;39.264;-120.910;2023-08-30T13:55:58;3.20;;;1.08;;
82288;SDS011;71889;39.264;-120.910;2023-08-30T13:58:24;2.13;;;1.10;;
82288;SDS011;71889;39.264;-120.910;2023-08-30T14:00:51;2.30;;;1.08;;
82288;SDS011;71889;39.264;-120.910;2023-08-30T14:03:17;2.35;;;1.10;;
82288;SDS011;71889;39.264;-120.910;2023-08-30T14:05:44;1.70;;;1.02;;
82288;SDS011;71889;39.264;-120.910;2023-08-30T14:08:11;4.28;;;1.02;;
82288;SDS011;71889;39.264;-120.910;2023-08-30T14:10:37;3.53;;;1.27;;
82288;SDS011;71889;39.264;-120.910;2023-08-30T14:13:04;2.13;;;1.00;;
82288;SDS011;71889;39.264;-120.910;2023-08-30T14:15:31;2.65;;;1.30;;
82288;SDS011;71889;39.264;-120.910;2023-08-30T14:17:57;3.75;;;1.60;;
82288;SDS011;71889;39.264;-120.910;2023-08-30T14:20:24;2.95;;;1.27;;
82288;SDS011;71889;39.264;-120.910;2023-08-30T14:22:51;2.42;;;1.33;;
82288;SDS011;71889;39.264;-120.910;2023-08-30T14:25:17;4.35;;;1.30;;
82288;SDS011;71889;39.264;-120.910;2023-08-30T14:27:44;2.72;;;1.20;;
82288;SDS011;71889;39.264;-120.910;2023-08-30T14:30:14;3.08;;;1.63;;
82288;SDS011;71889;39.264;-120.910;2023-08-30T14:32:41;2.67;;;1.30;;
82288;SDS011;71889;39.264;-120.910;2023-08-30T14:35:07;2.42;;;1.50;;
82288;SDS011;71889;39.264;-120.910;2023-08-30T14:37:34;3.10;;;1.83;;
82288;SDS011;71889;39.264;-120.910;2023-08-30T14:40:02;5.22;;;1.52;;
82288;SDS011;71889;39.264;-120.910;2023-08-30T14:42:29;3.38;;;1.52;;
82288;SDS011;71889;39.264;-120.910;2023-08-30T14:44:57;3.08;;;1.70;;
82288;SDS011;71889;39.264;-120.910;2023-08-30T14:47:24;3.13;;;1.48;;
82288;SDS011;71889;39.264;-120.910;2023-08-30T14:49:51;3.00;;;1.58;;
82288;SDS011;71889;39.264;-120.910;2023-08-30T14:52:18;2.08;;;1.20;;
82288;SDS011;71889;39.264;-120.910;2023-08-30T14:54:44;3.22;;;1.55;;
82288;SDS011;71889;39.264;-120.910;2023-08-30T14:57:11;3.85;;;1.65;;
82288;SDS011;71889;39.264;-120.910;2023-08-30T14:59:38;3.67;;;1.70;;
82288;SDS011;71889;39.264;-120.910;2023-08-30T15:02:04;3.13;;;1.60;;
82288;SDS011;71889;39.264;-120.910;2023-08-30T15:04:31;3.78;;;1.55;;
82288;SDS011;71889;39.264;-120.910;2023-08-30T15:07:01;4.28;;;2.17;;
82288;SDS011;71889;39.264;-120.910;2023-08-30T15:09:29;3.95;;;1.98;;
82288;SDS011;71889;39.264;-120.910;2023-08-30T15:11:56;4.13;;;1.83;;
82288;SDS011;71889;39.264;-120.910;2023-08-30T15:14:25;3.72;;;2.03;;
82288;SDS011;71889;39.264;-120.910;2023-08-30T15:16:52;3.88;;;2.10;;
82288;SDS011;71889;39.264;-120.910;2023-08-30T15:19:18;4.32;;;1.98;;
82288;SDS011;71889;39.264;-120.910;2023-08-30T15:21:45;11.13;;;2.35;;
82288;SDS011;71889;39.264;-120.910;2023-08-30T15:24:12;4.78;;;2.13;;
82288;SDS011;71889;39.264;-120.910;2023-08-30T15:26:41;3.90;;;2.00;;
82288;SDS011;71889;39.264;-120.910;2023-08-30T15:29:08;3.67;;;1.98;;
82288;SDS011;71889;39.264;-120.910;2023-08-30T15:31:34;4.00;;;2.30;;
82288;SDS011;71889;39.264;-120.910;2023-08-30T15:34:01;5.38;;;2.28;;
82288;SDS011;71889;39.264;-120.910;2023-08-30T15:36:28;5.13;;;2.30;;
82288;SDS011;71889;39.264;-120.910;2023-08-30T15:38:55;6.43;;;2.40;;
82288;SDS011;71889;39.264;-120.910;2023-08-30T15:41:22;4.43;;;2.38;;
82288;SDS011;71889;39.264;-120.910;2023-08-30T15:43:49;5.45;;;2.60;;
82288;SDS011;71889;39.264;-120.910;2023-08-30T15:46:15;5.95;;;2.50;;
82288;SDS011;71889;39.264;-120.910;2023-08-30T15:48:42;6.35;;;2.90;;
82288;SDS011;71889;39.264;-120.910;2023-08-30T15:51:11;4.35;;;2.45;;
82288;SDS011;71889;39.264;-120.910;2023-08-30T15:53:38;5.68;;;3.10;;
82288;SDS011;71889;39.264;-120.910;2023-08-30T15:56:06;5.43;;;2.53;;